Wetterstation Oberdrees
Wetterdaten: aktuell Dienstag, 19.02.2019 06:30
Datum Zeit Temp. A. Feuchte A. Luftdruck Regen Wind Richtung Richtung Taupunkt Windchill Windben
19.02.2019 06:30 6,9 C 84 % 1018,3 hPa 0,0 l/m 1,6 km/h (1 Bft) W 277 4,4 C 6,9 C 4,8 km/h (1 Bft)
19.02.2019 06:25 7,1 C 83 % 1018,3 hPa 0,0 l/m 1,8 km/h (1 Bft) W 273 4,4 C 7,1 C 3,2 km/h (1 Bft)
19.02.2019 06:20 7,1 C 83 % 1018,3 hPa 0,0 l/m 1,9 km/h (1 Bft) W 273 4,4 C 7,1 C 4,8 km/h (1 Bft)
19.02.2019 06:15 7,2 C 82 % 1018,4 hPa 0,0 l/m 2,5 km/h (1 Bft) W 273 4,3 C 7,2 C 4,8 km/h (1 Bft)
19.02.2019 06:10 7,3 C 81 % 1018,4 hPa 0,0 l/m 2,7 km/h (1 Bft) W-NW 289 4,3 C 7,3 C 4,8 km/h (1 Bft)
19.02.2019 06:05 7,3 C 80 % 1018,3 hPa 0,0 l/m 2,4 km/h (1 Bft) W 279 4,1 C 7,3 C 4,8 km/h (1 Bft)
19.02.2019 06:00 7,4 C 79 % 1018,3 hPa 0,0 l/m 2,5 km/h (1 Bft) W-NW 290 4,0 C 7,4 C 4,8 km/h (1 Bft)
19.02.2019 05:55 7,5 C 77 % 1018,2 hPa 0,0 l/m 4,1 km/h (1 Bft) W-NW 288 3,7 C 7,5 C 9,7 km/h (2 Bft)
19.02.2019 05:50 7,6 C 76 % 1018,2 hPa 0,0 l/m 2,6 km/h (1 Bft) W 278 3,6 C 7,6 C 4,8 km/h (1 Bft)
19.02.2019 05:45 7,6 C 75 % 1018,1 hPa 0,0 l/m 3,3 km/h (1 Bft) W 276 3,5 C 7,6 C 6,4 km/h (2 Bft)
19.02.2019 05:40 7,6 C 74 % 1018,1 hPa 0,0 l/m 3,1 km/h (1 Bft) W 262 3,3 C 7,6 C 4,8 km/h (1 Bft)
19.02.2019 05:35 7,7 C 74 % 1018,1 hPa 0,0 l/m 4,1 km/h (1 Bft) W-SW 252 3,4 C 7,7 C 9,7 km/h (2 Bft)
19.02.2019 05:30 7,7 C 74 % 1018,0 hPa 0,0 l/m 5,4 km/h (2 Bft) W 259 3,4 C 7,7 C 12,9 km/h (3 Bft)
19.02.2019 05:25 7,6 C 74 % 1018,1 hPa 0,0 l/m 5,1 km/h (1 Bft) W-SW 257 3,3 C 7,6 C 9,7 km/h (2 Bft)
19.02.2019 05:20 7,5 C 74 % 1018,0 hPa 0,0 l/m 3,9 km/h (1 Bft) W 265 3,2 C 7,5 C 6,4 km/h (2 Bft)
19.02.2019 05:15 7,4 C 73 % 1018,0 hPa 0,0 l/m 3,6 km/h (1 Bft) W 266 2,9 C 7,4 C 9,7 km/h (2 Bft)
19.02.2019 05:10 7,4 C 73 % 1018,0 hPa 0,0 l/m 3,4 km/h (1 Bft) W-SW 252 2,9 C 7,4 C 6,4 km/h (2 Bft)
19.02.2019 05:05 7,4 C 72 % 1017,9 hPa 0,0 l/m 3,8 km/h (1 Bft) W 259 2,7 C 7,4 C 9,7 km/h (2 Bft)
19.02.2019 05:00 7,4 C 72 % 1017,9 hPa 0,0 l/m 6,1 km/h (2 Bft) W 271 2,7 C 7,4 C 11,3 km/h (2 Bft)
19.02.2019 04:55 7,4 C 71 % 1017,9 hPa 0,0 l/m 6,0 km/h (2 Bft) W 272 2,5 C 7,4 C 11,3 km/h (2 Bft)
19.02.2019 04:50 7,5 C 71 % 1017,9 hPa 0,0 l/m 4,9 km/h (1 Bft) W 259 2,6 C 7,5 C 9,7 km/h (2 Bft)
19.02.2019 04:45 7,5 C 71 % 1017,8 hPa 0,0 l/m 3,9 km/h (1 Bft) W 277 2,6 C 7,5 C 8,0 km/h (2 Bft)
19.02.2019 04:40 7,5 C 71 % 1017,9 hPa 0,0 l/m 4,4 km/h (1 Bft) W 267 2,6 C 7,5 C 9,7 km/h (2 Bft)
19.02.2019 04:35 7,4 C 71 % 1017,7 hPa 0,0 l/m 4,4 km/h (1 Bft) W-SW 254 2,5 C 7,4 C 11,3 km/h (2 Bft)
19.02.2019 04:30 7,4 C 71 % 1017,8 hPa 0,0 l/m 4,3 km/h (1 Bft) W 261 2,5 C 7,4 C 6,4 km/h (2 Bft)
19.02.2019 04:25 7,2 C 72 % 1017,7 hPa 0,0 l/m 3,4 km/h (1 Bft) SW 230 2,5 C 7,2 C 8,0 km/h (2 Bft)
19.02.2019 04:20 7,1 C 71 % 1017,7 hPa 0,0 l/m 3,9 km/h (1 Bft) W-SW 248 2,2 C 7,1 C 9,7 km/h (2 Bft)
19.02.2019 04:15 7,0 C 71 % 1017,7 hPa 0,0 l/m 3,8 km/h (1 Bft) W 261 2,1 C 7,0 C 6,4 km/h (2 Bft)
19.02.2019 04:10 6,9 C 71 % 1017,8 hPa 0,0 l/m 3,2 km/h (1 Bft) W 267 2,0 C 6,9 C 4,8 km/h (1 Bft)
19.02.2019 04:05 6,9 C 71 % 1017,8 hPa 0,0 l/m 3,7 km/h (1 Bft) W 261 2,0 C 6,9 C 6,4 km/h (2 Bft)
19.02.2019 04:00 6,8 C 71 % 1017,7 hPa 0,0 l/m 2,8 km/h (1 Bft) W-SW 258 1,9 C 6,8 C 6,4 km/h (2 Bft)
19.02.2019 03:55 6,8 C 71 % 1017,8 hPa 0,0 l/m 2,4 km/h (1 Bft) W-SW 257 1,9 C 6,8 C 4,8 km/h (1 Bft)
19.02.2019 03:50 6,8 C 71 % 1017,8 hPa 0,0 l/m 2,5 km/h (1 Bft) W-SW 257 1,9 C 6,8 C 4,8 km/h (1 Bft)
19.02.2019 03:45 6,9 C 70 % 1017,7 hPa 0,0 l/m 1,9 km/h (1 Bft) W 259 1,8 C 6,9 C 4,8 km/h (1 Bft)
19.02.2019 03:40 6,9 C 70 % 1017,7 hPa 0,0 l/m 2,3 km/h (1 Bft) W-SW 247 1,8 C 6,9 C 4,8 km/h (1 Bft)
19.02.2019 03:35 7,1 C 70 % 1017,7 hPa 0,0 l/m 2,9 km/h (1 Bft) W 269 2,0 C 7,1 C 6,4 km/h (2 Bft)
19.02.2019 03:30 7,2 C 69 % 1017,8 hPa 0,0 l/m 2,8 km/h (1 Bft) W 271 1,9 C 7,2 C 6,4 km/h (2 Bft)
19.02.2019 03:25 7,3 C 69 % 1017,7 hPa 0,0 l/m 4,1 km/h (1 Bft) W 269 2,0 C 7,3 C 6,4 km/h (2 Bft)
19.02.2019 03:20 7,4 C 68 % 1017,6 hPa 0,0 l/m 3,6 km/h (1 Bft) W-SW 255 1,9 C 7,4 C 6,4 km/h (2 Bft)
19.02.2019 03:15 7,4 C 68 % 1017,6 hPa 0,0 l/m 2,8 km/h (1 Bft) W-SW 255 1,9 C 7,4 C 4,8 km/h (1 Bft)
19.02.2019 03:10 7,6 C 67 % 1017,6 hPa 0,0 l/m 3,0 km/h (1 Bft) W-SW 256 1,9 C 7,6 C 6,4 km/h (2 Bft)
19.02.2019 03:05 7,8 C 66 % 1017,7 hPa 0,0 l/m 1,2 km/h (1 Bft) W 267 1,9 C 7,8 C 4,8 km/h (1 Bft)
19.02.2019 03:00 8,1 C 65 % 1017,6 hPa 0,0 l/m 2,9 km/h (1 Bft) W 267 1,9 C 8,1 C 6,4 km/h (2 Bft)
19.02.2019 02:55 8,0 C 65 % 1017,7 hPa 0,0 l/m 3,2 km/h (1 Bft) W-SW 258 1,8 C 8,0 C 6,4 km/h (2 Bft)
19.02.2019 02:50 7,8 C 66 % 1017,5 hPa 0,0 l/m 1,9 km/h (1 Bft) W-SW 251 1,9 C 7,8 C 4,8 km/h (1 Bft)
19.02.2019 02:45 7,9 C 66 % 1017,5 hPa 0,0 l/m 1,4 km/h (1 Bft) W-NW 294 1,9 C 7,9 C 4,8 km/h (1 Bft)
19.02.2019 02:40 7,9 C 65 % 1017,6 hPa 0,0 l/m 1,9 km/h (1 Bft) W-NW 294 1,7 C 7,9 C 3,2 km/h (1 Bft)
19.02.2019 02:35 8,1 C 65 % 1017,6 hPa 0,0 l/m 1,0 km/h (0 Bft) W-NW 295 1,9 C 8,1 C 4,8 km/h (1 Bft)
19.02.2019 02:30 8,4 C 64 % 1017,6 hPa 0,0 l/m 1,8 km/h (1 Bft) W-NW 296 2,0 C 8,4 C 4,8 km/h (1 Bft)
19.02.2019 02:25 8,9 C 63 % 1017,6 hPa 0,0 l/m 2,9 km/h (1 Bft) W-NW 292 2,2 C 8,9 C 6,4 km/h (2 Bft)
19.02.2019 02:20 9,1 C 61 % 1017,5 hPa 0,0 l/m 3,1 km/h (1 Bft) W 259 2,0 C 9,1 C 8,0 km/h (2 Bft)
19.02.2019 02:15 9,0 C 61 % 1017,4 hPa 0,0 l/m 3,8 km/h (1 Bft) W-SW 241 1,9 C 9,0 C 9,7 km/h (2 Bft)
19.02.2019 02:10 8,9 C 62 % 1017,3 hPa 0,0 l/m 2,1 km/h (1 Bft) W 261 2,0 C 8,9 C 4,8 km/h (1 Bft)
19.02.2019 02:05 8,8 C 62 % 1017,4 hPa 0,0 l/m 2,3 km/h (1 Bft) S-SW 192 1,9 C 8,8 C 6,4 km/h (2 Bft)
19.02.2019 02:00 8,6 C 63 % 1017,4 hPa 0,0 l/m 2,9 km/h (1 Bft) W-SW 238 2,0 C 8,6 C 8,0 km/h (2 Bft)
19.02.2019 01:55 8,4 C 63 % 1017,5 hPa 0,0 l/m 2,1 km/h (1 Bft) SW 233 1,8 C 8,4 C 9,7 km/h (2 Bft)
19.02.2019 01:50 8,4 C 64 % 1017,5 hPa 0,0 l/m 1,7 km/h (1 Bft) SW 235 2,0 C 8,4 C 4,8 km/h (1 Bft)
19.02.2019 01:45 8,3 C 64 % 1017,5 hPa 0,0 l/m 1,4 km/h (1 Bft) W-SW 238 1,9 C 8,3 C 3,2 km/h (1 Bft)
19.02.2019 01:40 8,3 C 64 % 1017,5 hPa 0,0 l/m 1,6 km/h (1 Bft) W-SW 238 1,9 C 8,3 C 4,8 km/h (1 Bft)
19.02.2019 01:35 8,4 C 64 % 1017,5 hPa 0,0 l/m 1,0 km/h (0 Bft) W-SW 238 2,0 C 8,4 C 3,2 km/h (1 Bft)
19.02.2019 01:30 8,4 C 63 % 1017,6 hPa 0,0 l/m 1,1 km/h (1 Bft) W-SW 238 1,8 C 8,4 C 3,2 km/h (1 Bft)
19.02.2019 01:25 8,4 C 63 % 1017,5 hPa 0,0 l/m 0,9 km/h (0 Bft) W-SW 238 1,8 C 8,4 C 4,8 km/h (1 Bft)
19.02.2019 01:20 8,4 C 63 % 1017,6 hPa 0,0 l/m 1,8 km/h (1 Bft) W-SW 238 1,8 C 8,4 C 4,8 km/h (1 Bft)
19.02.2019 01:15 8,4 C 63 % 1017,6 hPa 0,0 l/m 1,5 km/h (1 Bft) W-SW 240 1,8 C 8,4 C 4,8 km/h (1 Bft)
19.02.2019 01:10 8,6 C 63 % 1017,5 hPa 0,0 l/m 1,0 km/h (0 Bft) W-SW 239 2,0 C 8,6 C 6,4 km/h (2 Bft)
19.02.2019 01:05 8,8 C 62 % 1017,6 hPa 0,0 l/m 0,6 km/h (0 Bft) SW 235 1,9 C 8,8 C 4,8 km/h (1 Bft)
19.02.2019 01:00 8,9 C 61 % 1017,5 hPa 0,0 l/m 0,4 km/h (0 Bft) W-SW 242 1,8 C 8,9 C 3,2 km/h (1 Bft)
19.02.2019 00:55 9,0 C 61 % 1017,5 hPa 0,0 l/m 0,9 km/h (0 Bft) W-SW 242 1,9 C 9,0 C 6,4 km/h (2 Bft)
19.02.2019 00:50 9,2 C 60 % 1017,5 hPa 0,0 l/m 0,8 km/h (0 Bft) SW 226 1,8 C 9,2 C 3,2 km/h (1 Bft)
19.02.2019 00:45 9,3 C 60 % 1017,4 hPa 0,0 l/m 2,7 km/h (1 Bft) SW 226 1,9 C 9,3 C 4,8 km/h (1 Bft)
19.02.2019 00:40 9,3 C 60 % 1017,4 hPa 0,0 l/m 2,3 km/h (1 Bft) SW 227 1,9 C 9,3 C 6,4 km/h (2 Bft)
19.02.2019 00:35 9,3 C 59 % 1017,4 hPa 0,0 l/m 1,7 km/h (1 Bft) W 259 1,7 C 9,3 C 3,2 km/h (1 Bft)
19.02.2019 00:30 9,4 C 59 % 1017,4 hPa 0,0 l/m 2,8 km/h (1 Bft) W 261 1,8 C 9,4 C 4,8 km/h (1 Bft)
19.02.2019 00:25 9,5 C 58 % 1017,5 hPa 0,0 l/m 2,5 km/h (1 Bft) W 265 1,7 C 9,5 C 8,0 km/h (2 Bft)
19.02.2019 00:20 9,6 C 58 % 1017,4 hPa 0,0 l/m 4,0 km/h (1 Bft) W 261 1,8 C 9,6 C 8,0 km/h (2 Bft)
19.02.2019 00:15 9,7 C 58 % 1017,5 hPa 0,0 l/m 3,1 km/h (1 Bft) W-SW 255 1,8 C 9,7 C 8,0 km/h (2 Bft)
19.02.2019 00:10 9,8 C 57 % 1017,4 hPa 0,0 l/m 2,9 km/h (1 Bft) W-SW 252 1,7 C 9,8 C 6,4 km/h (2 Bft)
19.02.2019 00:05 9,9 C 57 % 1017,4 hPa 0,0 l/m 3,3 km/h (1 Bft) W-SW 252 1,8 C 9,9 C 11,3 km/h (2 Bft)
19.02.2019 00:00 9,9 C 57 % 1017,4 hPa 0,0 l/m 2,9 km/h (1 Bft) W-SW 251 1,8 C 9,9 C 8,0 km/h (2 Bft)
18.02.2019 23:55 9,9 C 57 % 1017,4 hPa 0,0 l/m 4,5 km/h (1 Bft) W-SW 238 1,8 C 9,9 C 11,3 km/h (2 Bft)
18.02.2019 23:50 9,9 C 57 % 1017,4 hPa 0,0 l/m 5,5 km/h (2 Bft) SW 230 1,8 C 9,9 C 12,9 km/h (3 Bft)
18.02.2019 23:45 9,9 C 57 % 1017,5 hPa 0,0 l/m 5,8 km/h (2 Bft) W-SW 240 1,8 C 9,9 C 16,1 km/h (3 Bft)
18.02.2019 23:40 10,1 C 57 % 1017,5 hPa 0,0 l/m 6,9 km/h (2 Bft) W-SW 254 2,0 C 9,7 C 14,5 km/h (3 Bft)
18.02.2019 23:35 10,1 C 56 % 1017,5 hPa 0,0 l/m 7,0 km/h (2 Bft) W-SW 244 1,7 C 9,7 C 14,5 km/h (3 Bft)
18.02.2019 23:30 10,4 C 55 % 1017,4 hPa 0,0 l/m 7,0 km/h (2 Bft) W 259 1,8 C 10,0 C 17,7 km/h (3 Bft)
18.02.2019 23:25 10,6 C 54 % 1017,5 hPa 0,0 l/m 9,8 km/h (2 Bft) SW 220 1,7 C 8,4 C 19,3 km/h (3 Bft)
18.02.2019 23:20 10,6 C 54 % 1017,4 hPa 0,0 l/m 7,6 km/h (2 Bft) W-NW 288 1,7 C 9,8 C 14,5 km/h (3 Bft)
18.02.2019 23:15 10,7 C 54 % 1017,3 hPa 0,0 l/m 9,6 km/h (2 Bft) W 265 1,8 C 8,6 C 19,3 km/h (3 Bft)
18.02.2019 23:10 10,7 C 54 % 1017,2 hPa 0,0 l/m 11,6 km/h (2 Bft) S-SW 205 1,8 C 7,5 C 22,5 km/h (4 Bft)
18.02.2019 23:05 10,7 C 54 % 1017,1 hPa 0,0 l/m 8,7 km/h (2 Bft) W-SW 240 1,8 C 9,1 C 22,5 km/h (4 Bft)
18.02.2019 23:00 10,6 C 54 % 1017,0 hPa 0,0 l/m 7,4 km/h (2 Bft) W 264 1,7 C 9,9 C 19,3 km/h (3 Bft)
18.02.2019 22:55 10,6 C 55 % 1017,1 hPa 0,0 l/m 7,0 km/h (2 Bft) W 275 1,9 C 10,2 C 16,1 km/h (3 Bft)
18.02.2019 22:50 10,6 C 55 % 1017,2 hPa 0,0 l/m 7,9 km/h (2 Bft) W-SW 246 1,9 C 9,5 C 19,3 km/h (3 Bft)
18.02.2019 22:45 10,7 C 55 % 1017,2 hPa 0,0 l/m 10,0 km/h (2 Bft) W-SW 248 2,0 C 8,4 C 20,9 km/h (4 Bft)
18.02.2019 22:40 10,8 C 54 % 1017,1 hPa 0,0 l/m 10,5 km/h (2 Bft) W 265 1,9 C 8,2 C 25,7 km/h (4 Bft)
18.02.2019 22:35 10,8 C 54 % 1017,1 hPa 0,0 l/m 8,2 km/h (2 Bft) W-SW 244 1,9 C 9,6 C 19,3 km/h (3 Bft)
18.02.2019 22:30 10,8 C 54 % 1017,2 hPa 0,0 l/m 8,9 km/h (2 Bft) W 259 1,9 C 9,1 C 19,3 km/h (3 Bft)
18.02.2019 22:25 10,8 C 55 % 1017,0 hPa 0,0 l/m 8,1 km/h (2 Bft) W 272 2,1 C 9,6 C 17,7 km/h (3 Bft)
18.02.2019 22:20 10,8 C 55 % 1017,0 hPa 0,0 l/m 5,8 km/h (2 Bft) W 274 2,1 C 10,8 C 14,5 km/h (3 Bft)
18.02.2019 22:15 10,8 C 55 % 1017,0 hPa 0,0 l/m 6,9 km/h (2 Bft) SW 234 2,1 C 10,5 C 16,1 km/h (3 Bft)
18.02.2019 22:10 10,7 C 55 % 1017,0 hPa 0,0 l/m 5,1 km/h (1 Bft) W-SW 257 2,0 C 10,7 C 14,5 km/h (3 Bft)
18.02.2019 22:05 10,7 C 56 % 1017,2 hPa 0,0 l/m 3,4 km/h (1 Bft) S 189 2,3 C 10,7 C 9,7 km/h (2 Bft)
18.02.2019 22:00 10,7 C 56 % 1017,1 hPa 0,0 l/m 7,4 km/h (2 Bft) SW 234 2,3 C 10,0 C 20,9 km/h (4 Bft)
18.02.2019 21:55 10,6 C 57 % 1017,1 hPa 0,0 l/m 5,5 km/h (2 Bft) W-NW 292 2,4 C 10,6 C 14,5 km/h (3 Bft)
18.02.2019 21:50 10,5 C 57 % 1017,1 hPa 0,0 l/m 6,3 km/h (2 Bft) SW 233 2,3 C 10,5 C 16,1 km/h (3 Bft)
18.02.2019 21:45 10,4 C 57 % 1017,2 hPa 0,0 l/m 6,1 km/h (2 Bft) W 277 2,3 C 10,4 C 16,1 km/h (3 Bft)
18.02.2019 21:40 10,4 C 57 % 1017,1 hPa 0,0 l/m 6,1 km/h (2 Bft) W-SW 242 2,3 C 10,4 C 20,9 km/h (4 Bft)
18.02.2019 21:35 10,4 C 57 % 1017,0 hPa 0,0 l/m 6,0 km/h (2 Bft) W-SW 252 2,3 C 10,4 C 16,1 km/h (3 Bft)
18.02.2019 21:30 10,4 C 57 % 1017,0 hPa 0,0 l/m 5,8 km/h (2 Bft) W-SW 238 2,3 C 10,4 C 12,9 km/h (3 Bft)
18.02.2019 21:25 10,5 C 57 % 1017,0 hPa 0,0 l/m 5,9 km/h (2 Bft) SW 216 2,3 C 10,5 C 16,1 km/h (3 Bft)
18.02.2019 21:20 10,5 C 57 % 1017,0 hPa 0,0 l/m 6,9 km/h (2 Bft) SW 230 2,3 C 10,2 C 17,7 km/h (3 Bft)
18.02.2019 21:15 10,6 C 57 % 1016,9 hPa 0,0 l/m 5,6 km/h (2 Bft) SW 221 2,4 C 10,6 C 12,9 km/h (3 Bft)
18.02.2019 21:10 10,6 C 57 % 1017,0 hPa 0,0 l/m 7,1 km/h (2 Bft) S-SW 198 2,4 C 10,1 C 20,9 km/h (4 Bft)
18.02.2019 21:05 10,6 C 57 % 1016,9 hPa 0,0 l/m 6,4 km/h (2 Bft) W-SW 246 2,4 C 10,6 C 12,9 km/h (3 Bft)
18.02.2019 21:00 10,4 C 58 % 1017,0 hPa 0,0 l/m 6,7 km/h (2 Bft) S 182 2,5 C 10,2 C 16,1 km/h (3 Bft)
18.02.2019 20:55 10,4 C 59 % 1017,1 hPa 0,0 l/m 5,5 km/h (2 Bft) SW 214 2,7 C 10,4 C 11,3 km/h (2 Bft)
18.02.2019 20:50 10,3 C 59 % 1017,0 hPa 0,0 l/m 5,8 km/h (2 Bft) SW 222 2,6 C 10,3 C 14,5 km/h (3 Bft)
18.02.2019 20:45 10,3 C 59 % 1017,0 hPa 0,0 l/m 4,9 km/h (1 Bft) SW 227 2,6 C 10,3 C 12,9 km/h (3 Bft)
18.02.2019 20:40 10,4 C 59 % 1016,9 hPa 0,0 l/m 7,2 km/h (2 Bft) W-SW 247 2,7 C 9,8 C 17,7 km/h (3 Bft)
18.02.2019 20:35 10,4 C 59 % 1016,8 hPa 0,0 l/m 6,0 km/h (2 Bft) W-SW 238 2,7 C 10,4 C 17,7 km/h (3 Bft)
18.02.2019 20:30 10,3 C 59 % 1016,8 hPa 0,0 l/m 7,7 km/h (2 Bft) S-SW 212 2,6 C 9,4 C 19,3 km/h (3 Bft)
18.02.2019 20:25 10,3 C 59 % 1016,7 hPa 0,0 l/m 7,8 km/h (2 Bft) W 272 2,6 C 9,3 C 16,1 km/h (3 Bft)
18.02.2019 20:20 10,3 C 59 % 1016,9 hPa 0,0 l/m 6,4 km/h (2 Bft) SW 215 2,6 C 10,3 C 22,5 km/h (4 Bft)
18.02.2019 20:15 10,2 C 59 % 1016,9 hPa 0,0 l/m 5,6 km/h (2 Bft) SW 226 2,6 C 10,2 C 16,1 km/h (3 Bft)
18.02.2019 20:10 10,2 C 59 % 1016,9 hPa 0,0 l/m 4,8 km/h (1 Bft) SW 233 2,6 C 10,2 C 11,3 km/h (2 Bft)
18.02.2019 20:05 10,3 C 58 % 1016,9 hPa 0,0 l/m 4,9 km/h (1 Bft) SW 215 2,4 C 10,3 C 12,9 km/h (3 Bft)
18.02.2019 20:00 10,2 C 58 % 1017,0 hPa 0,0 l/m 5,6 km/h (2 Bft) SW 220 2,3 C 10,2 C 12,9 km/h (3 Bft)
18.02.2019 19:55 10,3 C 58 % 1016,9 hPa 0,0 l/m 4,6 km/h (1 Bft) SW 231 2,4 C 10,3 C 11,3 km/h (2 Bft)
18.02.2019 19:50 10,3 C 58 % 1016,9 hPa 0,0 l/m 6,1 km/h (2 Bft) W-SW 256 2,4 C 10,3 C 19,3 km/h (3 Bft)
18.02.2019 19:45 10,3 C 58 % 1016,8 hPa 0,0 l/m 5,6 km/h (2 Bft) W-SW 237 2,4 C 10,3 C 16,1 km/h (3 Bft)
18.02.2019 19:40 10,4 C 58 % 1016,9 hPa 0,0 l/m 7,3 km/h (2 Bft) S-SW 212 2,5 C 9,8 C 20,9 km/h (4 Bft)
18.02.2019 19:35 10,3 C 58 % 1017,0 hPa 0,0 l/m 6,1 km/h (2 Bft) W 265 2,4 C 10,3 C 19,3 km/h (3 Bft)
18.02.2019 19:30 10,4 C 57 % 1017,1 hPa 0,0 l/m 5,8 km/h (2 Bft) W-NW 282 2,3 C 10,4 C 12,9 km/h (3 Bft)
18.02.2019 19:25 10,4 C 57 % 1017,0 hPa 0,0 l/m 6,1 km/h (2 Bft) SW 214 2,3 C 10,4 C 17,7 km/h (3 Bft)
18.02.2019 19:20 10,5 C 57 % 1017,1 hPa 0,0 l/m 6,3 km/h (2 Bft) SW 223 2,3 C 10,5 C 12,9 km/h (3 Bft)
18.02.2019 19:15 10,6 C 57 % 1017,2 hPa 0,0 l/m 6,8 km/h (2 Bft) W-SW 249 2,4 C 10,3 C 14,5 km/h (3 Bft)
18.02.2019 19:10 10,7 C 56 % 1017,0 hPa 0,0 l/m 6,1 km/h (2 Bft) W-SW 252 2,3 C 10,7 C 14,5 km/h (3 Bft)
18.02.2019 19:05 10,8 C 55 % 1017,0 hPa 0,0 l/m 5,3 km/h (1 Bft) S-SW 199 2,1 C 10,8 C 12,9 km/h (3 Bft)
18.02.2019 19:00 10,9 C 55 % 1017,0 hPa 0,0 l/m 7,8 km/h (2 Bft) W-SW 244 2,2 C 9,9 C 19,3 km/h (3 Bft)
18.02.2019 18:55 10,9 C 55 % 1017,0 hPa 0,0 l/m 6,8 km/h (2 Bft) S-SW 212 2,2 C 10,6 C 20,9 km/h (4 Bft)
18.02.2019 18:50 11,0 C 55 % 1016,9 hPa 0,0 l/m 7,2 km/h (2 Bft) W-SW 237 2,3 C 10,4 C 17,7 km/h (3 Bft)
18.02.2019 18:45 11,0 C 55 % 1017,0 hPa 0,0 l/m 8,3 km/h (2 Bft) S-SW 195 2,3 C 9,7 C 19,3 km/h (3 Bft)
18.02.2019 18:40 11,1 C 54 % 1016,9 hPa 0,0 l/m 7,2 km/h (2 Bft) W-SW 250 2,2 C 10,5 C 16,1 km/h (3 Bft)
18.02.2019 18:35 11,1 C 54 % 1017,0 hPa 0,0 l/m 5,9 km/h (2 Bft) S-SW 213 2,2 C 11,1 C 12,9 km/h (3 Bft)
18.02.2019 18:30 11,2 C 54 % 1017,1 hPa 0,0 l/m 6,4 km/h (2 Bft) SW 214 2,2 C 11,2 C 14,5 km/h (3 Bft)
18.02.2019 18:25 11,3 C 54 % 1017,0 hPa 0,0 l/m 5,9 km/h (2 Bft) S 184 2,3 C 11,3 C 22,5 km/h (4 Bft)
18.02.2019 18:20 11,4 C 53 % 1017,1 hPa 0,0 l/m 8,1 km/h (2 Bft) S-SW 213 2,2 C 10,3 C 24,1 km/h (4 Bft)
18.02.2019 18:15 11,3 C 53 % 1017,0 hPa 0,0 l/m 6,2 km/h (2 Bft) W-SW 246 2,1 C 11,3 C 16,1 km/h (3 Bft)
18.02.2019 18:10 11,5 C 53 % 1016,9 hPa 0,0 l/m 5,3 km/h (1 Bft) SW 236 2,3 C 11,5 C 14,5 km/h (3 Bft)
18.02.2019 18:05 11,6 C 53 % 1017,0 hPa 0,0 l/m 7,0 km/h (2 Bft) SW 231 2,4 C 11,2 C 14,5 km/h (3 Bft)
18.02.2019 18:00 11,7 C 52 % 1017,0 hPa 0,0 l/m 6,2 km/h (2 Bft) W-SW 244 2,2 C 11,7 C 16,1 km/h (3 Bft)
18.02.2019 17:55 11,8 C 51 % 1016,8 hPa 0,0 l/m 7,5 km/h (2 Bft) W-SW 255 2,0 C 11,1 C 19,3 km/h (3 Bft)
18.02.2019 17:50 11,8 C 51 % 1016,8 hPa 0,0 l/m 5,7 km/h (2 Bft) SW 230 2,0 C 11,8 C 17,7 km/h (3 Bft)
18.02.2019 17:45 12,1 C 51 % 1016,9 hPa 0,0 l/m 5,0 km/h (1 Bft) SW 228 2,3 C 12,1 C 14,5 km/h (3 Bft)
18.02.2019 17:40 12,3 C 50 % 1016,9 hPa 0,0 l/m 5,6 km/h (2 Bft) W-SW 248 2,2 C 12,3 C 16,1 km/h (3 Bft)
18.02.2019 17:35 12,4 C 49 % 1016,9 hPa 0,0 l/m 5,6 km/h (2 Bft) W-SW 246 2,0 C 12,4 C 14,5 km/h (3 Bft)
18.02.2019 17:30 12,6 C 48 % 1017,0 hPa 0,0 l/m 5,4 km/h (2 Bft) S-SW 203 1,9 C 12,6 C 14,5 km/h (3 Bft)
18.02.2019 17:25 12,9 C 48 % 1017,0 hPa 0,0 l/m 5,8 km/h (2 Bft) SW 227 2,2 C 12,9 C 17,7 km/h (3 Bft)
18.02.2019 17:20 13,1 C 46 % 1016,9 hPa 0,0 l/m 6,2 km/h (2 Bft) SW 216 1,7 C 13,1 C 12,9 km/h (3 Bft)
18.02.2019 17:15 13,2 C 47 % 1017,1 hPa 0,0 l/m 5,1 km/h (1 Bft) W-SW 240 2,1 C 13,2 C 12,9 km/h (3 Bft)
18.02.2019 17:10 13,3 C 46 % 1017,1 hPa 0,0 l/m 5,6 km/h (2 Bft) S-SW 202 1,9 C 13,3 C 17,7 km/h (3 Bft)
18.02.2019 17:05 13,2 C 47 % 1017,0 hPa 0,0 l/m 3,3 km/h (1 Bft) W-SW 245 2,1 C 13,2 C 9,7 km/h (2 Bft)
18.02.2019 17:00 13,3 C 47 % 1017,1 hPa 0,0 l/m 2,6 km/h (1 Bft) W 277 2,2 C 13,3 C 8,0 km/h (2 Bft)
18.02.2019 16:55 13,3 C 46 % 1017,0 hPa 0,0 l/m 4,8 km/h (1 Bft) SW 227 1,9 C 13,3 C 11,3 km/h (2 Bft)
18.02.2019 16:50 13,4 C 45 % 1017,0 hPa 0,0 l/m 7,5 km/h (2 Bft) S 187 1,7 C 12,7 C 17,7 km/h (3 Bft)
18.02.2019 16:45 13,6 C 44 % 1017,0 hPa 0,0 l/m 6,9 km/h (2 Bft) S 190 1,6 C 13,3 C 14,5 km/h (3 Bft)
18.02.2019 16:40 13,7 C 43 % 1017,2 hPa 0,0 l/m 7,5 km/h (2 Bft) W-SW 241 1,4 C 13,0 C 22,5 km/h (4 Bft)
18.02.2019 16:35 13,9 C 42 % 1017,1 hPa 0,0 l/m 5,7 km/h (2 Bft) SW 218 1,2 C 13,9 C 11,3 km/h (2 Bft)
18.02.2019 16:30 14,1 C 41 % 1017,2 hPa 0,0 l/m 9,4 km/h (2 Bft) S-SW 213 1,1 C 12,4 C 20,9 km/h (4 Bft)
18.02.2019 16:25 14,1 C 41 % 1017,3 hPa 0,0 l/m 7,1 km/h (2 Bft) W-NW 288 1,1 C 13,7 C 19,3 km/h (3 Bft)
18.02.2019 16:20 14,2 C 39 % 1017,2 hPa 0,0 l/m 11,9 km/h (2 Bft) SW 214 0,5 C 11,4 C 20,9 km/h (4 Bft)
18.02.2019 16:15 14,4 C 39 % 1017,2 hPa 0,0 l/m 7,9 km/h (2 Bft) SW 229 0,6 C 13,5 C 20,9 km/h (4 Bft)
18.02.2019 16:10 14,6 C 39 % 1017,2 hPa 0,0 l/m 7,3 km/h (2 Bft) W-SW 251 0,8 C 14,1 C 16,1 km/h (3 Bft)
18.02.2019 16:05 14,7 C 37 % 1017,2 hPa 0,0 l/m 6,0 km/h (2 Bft) SW 236 0,2 C 14,7 C 17,7 km/h (3 Bft)
18.02.2019 16:00 14,8 C 38 % 1017,2 hPa 0,0 l/m 6,4 km/h (2 Bft) W 259 0,6 C 14,8 C 19,3 km/h (3 Bft)
18.02.2019 15:55 15,1 C 36 % 1017,1 hPa 0,0 l/m 9,3 km/h (2 Bft) S-SW 206 0,1 C 13,6 C 22,5 km/h (4 Bft)
18.02.2019 15:50 15,3 C 36 % 1017,1 hPa 0,0 l/m 9,9 km/h (2 Bft) SW 236 0,3 C 13,5 C 22,5 km/h (4 Bft)
18.02.2019 15:45 15,7 C 35 % 1017,0 hPa 0,0 l/m 6,5 km/h (2 Bft) SW 220 0,3 C 15,7 C 16,1 km/h (3 Bft)
18.02.2019 15:40 15,7 C 33 % 1017,0 hPa 0,0 l/m 8,7 km/h (2 Bft) S-SW 209 -0,5 C 14,5 C 17,7 km/h (3 Bft)
18.02.2019 15:35 16,0 C 34 % 1017,2 hPa 0,0 l/m 8,0 km/h (2 Bft) S-SW 202 0,2 C 15,2 C 25,7 km/h (4 Bft)
18.02.2019 15:30 16,2 C 34 % 1017,1 hPa 0,0 l/m 6,5 km/h (2 Bft) SW 226 0,3 C 16,2 C 16,1 km/h (3 Bft)
18.02.2019 15:25 16,3 C 33 % 1017,1 hPa 0,0 l/m 5,8 km/h (2 Bft) W-SW 239 0,0 C 16,3 C 16,1 km/h (3 Bft)
18.02.2019 15:20 16,3 C 33 % 1017,1 hPa 0,0 l/m 5,2 km/h (1 Bft) W-SW 250 0,0 C 16,3 C 17,7 km/h (3 Bft)
18.02.2019 15:15 16,6 C 30 % 1017,2 hPa 0,0 l/m 6,8 km/h (2 Bft) S 187 -1,0 C 16,4 C 16,1 km/h (3 Bft)
18.02.2019 15:10 16,7 C 31 % 1017,1 hPa 0,0 l/m 4,9 km/h (1 Bft) W-SW 242 -0,5 C 16,7 C 11,3 km/h (2 Bft)
18.02.2019 15:05 16,8 C 31 % 1017,1 hPa 0,0 l/m 5,2 km/h (1 Bft) SW 228 -0,4 C 16,8 C 14,5 km/h (3 Bft)
18.02.2019 15:00 16,8 C 30 % 1017,1 hPa 0,0 l/m 5,6 km/h (2 Bft) W-NW 284 -0,9 C 16,8 C 11,3 km/h (2 Bft)
18.02.2019 14:55 16,9 C 30 % 1017,1 hPa 0,0 l/m 7,1 km/h (2 Bft) SW 220 -0,8 C 16,5 C 12,9 km/h (3 Bft)
18.02.2019 14:50 17,1 C 31 % 1017,1 hPa 0,0 l/m 6,4 km/h (2 Bft) SW 219 -0,2 C 17,1 C 14,5 km/h (3 Bft)
18.02.2019 14:45 17,2 C 32 % 1017,1 hPa 0,0 l/m 5,1 km/h (1 Bft) SW 226 0,4 C 17,2 C 12,9 km/h (3 Bft)
18.02.2019 14:40 17,1 C 31 % 1017,1 hPa 0,0 l/m 4,7 km/h (1 Bft) N 355 -0,2 C 17,1 C 11,3 km/h (2 Bft)
18.02.2019 14:35 17,2 C 30 % 1017,2 hPa 0,0 l/m 5,3 km/h (1 Bft) S-SW 192 -0,5 C 17,2 C 12,9 km/h (3 Bft)
18.02.2019 14:30 17,2 C 31 % 1017,2 hPa 0,0 l/m 5,4 km/h (2 Bft) S-SW 212 -0,1 C 17,2 C 16,1 km/h (3 Bft)
18.02.2019 14:25 17,2 C 30 % 1017,2 hPa 0,0 l/m 4,8 km/h (1 Bft) W 261 -0,5 C 17,2 C 12,9 km/h (3 Bft)
18.02.2019 14:20 17,2 C 28 % 1017,2 hPa 0,0 l/m 7,5 km/h (2 Bft) S 183 -1,5 C 16,7 C 12,9 km/h (3 Bft)
18.02.2019 14:15 17,4 C 27 % 1017,2 hPa 0,0 l/m 6,3 km/h (2 Bft) S 175 -1,8 C 17,4 C 16,1 km/h (3 Bft)
18.02.2019 14:10 17,4 C 28 % 1017,4 hPa 0,0 l/m 5,6 km/h (2 Bft) S-SW 209 -1,3 C 17,4 C 11,3 km/h (2 Bft)
18.02.2019 14:05 17,5 C 28 % 1017,5 hPa 0,0 l/m 5,2 km/h (1 Bft) S 185 -1,2 C 17,5 C 14,5 km/h (3 Bft)
18.02.2019 14:00 17,5 C 33 % 1017,5 hPa 0,0 l/m 3,2 km/h (1 Bft) SW 229 1,1 C 17,5 C 8,0 km/h (2 Bft)
18.02.2019 13:55 17,4 C 32 % 1017,5 hPa 0,0 l/m 4,4 km/h (1 Bft) S-SW 213 0,5 C 17,4 C 8,0 km/h (2 Bft)
18.02.2019 13:50 17,4 C 31 % 1017,7 hPa 0,0 l/m 6,2 km/h (2 Bft) W-SW 252 0,1 C 17,4 C 14,5 km/h (3 Bft)
18.02.2019 13:45 17,5 C 33 % 1017,7 hPa 0,0 l/m 3,9 km/h (1 Bft) SO 131 1,1 C 17,5 C 12,9 km/h (3 Bft)
18.02.2019 13:40 17,3 C 37 % 1017,9 hPa 0,0 l/m 2,1 km/h (1 Bft) S-SO 152 2,5 C 17,3 C 8,0 km/h (2 Bft)
18.02.2019 13:35 17,2 C 36 % 1017,9 hPa 0,0 l/m 4,0 km/h (1 Bft) S-SW 208 2,0 C 17,2 C 9,7 km/h (2 Bft)
18.02.2019 13:30 17,1 C 37 % 1018,1 hPa 0,0 l/m 2,5 km/h (1 Bft) S-SW 205 2,3 C 17,1 C 4,8 km/h (1 Bft)
18.02.2019 13:25 17,0 C 36 % 1018,2 hPa 0,0 l/m 4,5 km/h (1 Bft) SO 139 1,8 C 17,0 C 11,3 km/h (2 Bft)
18.02.2019 13:20 16,9 C 36 % 1018,3 hPa 0,0 l/m 3,2 km/h (1 Bft) SO 132 1,7 C 16,9 C 8,0 km/h (2 Bft)
18.02.2019 13:15 16,8 C 36 % 1018,3 hPa 0,0 l/m 5,2 km/h (1 Bft) SW 236 1,7 C 16,8 C 14,5 km/h (3 Bft)
18.02.2019 13:10 16,7 C 35 % 1018,5 hPa 0,0 l/m 6,6 km/h (2 Bft) SW 236 1,2 C 16,6 C 19,3 km/h (3 Bft)
18.02.2019 13:05 16,7 C 37 % 1018,5 hPa 0,0 l/m 6,3 km/h (2 Bft) S-SW 209 1,9 C 16,7 C 11,3 km/h (2 Bft)
18.02.2019 13:00 16,6 C 36 % 1018,6 hPa 0,0 l/m 6,6 km/h (2 Bft) SW 224 1,5 C 16,5 C 12,9 km/h (3 Bft)
18.02.2019 12:55 16,6 C 37 % 1018,7 hPa 0,0 l/m 8,0 km/h (2 Bft) SW 229 1,9 C 15,8 C 14,5 km/h (3 Bft)
18.02.2019 12:50 16,7 C 37 % 1018,8 hPa 0,0 l/m 5,8 km/h (2 Bft) SW 219 1,9 C 16,7 C 14,5 km/h (3 Bft)
18.02.2019 12:45 16,9 C 38 % 1018,7 hPa 0,0 l/m 5,7 km/h (2 Bft) W-SW 250 2,5 C 16,9 C 17,7 km/h (3 Bft)
18.02.2019 12:40 17,0 C 37 % 1019,0 hPa 0,0 l/m 4,0 km/h (1 Bft) W 260 2,2 C 17,0 C 14,5 km/h (3 Bft)
18.02.2019 12:35 16,9 C 38 % 1019,0 hPa 0,0 l/m 3,2 km/h (1 Bft) S 182 2,5 C 16,9 C 8,0 km/h (2 Bft)
18.02.2019 12:30 16,8 C 38 % 1019,0 hPa 0,0 l/m 4,0 km/h (1 Bft) SW 217 2,4 C 16,8 C 9,7 km/h (2 Bft)
18.02.2019 12:25 16,8 C 39 % 1019,1 hPa 0,0 l/m 3,1 km/h (1 Bft) S-SW 200 2,8 C 16,8 C 6,4 km/h (2 Bft)
18.02.2019 12:20 16,7 C 39 % 1019,1 hPa 0,0 l/m 2,8 km/h (1 Bft) S-SW 207 2,7 C 16,7 C 8,0 km/h (2 Bft)
18.02.2019 12:15 16,7 C 40 % 1019,2 hPa 0,0 l/m 2,1 km/h (1 Bft) O-SO 123 3,0 C 16,7 C 4,8 km/h (1 Bft)
18.02.2019 12:10 16,6 C 39 % 1019,2 hPa 0,0 l/m 2,4 km/h (1 Bft) SW 223 2,6 C 16,6 C 6,4 km/h (2 Bft)
18.02.2019 12:05 16,5 C 41 % 1019,1 hPa 0,0 l/m 1,3 km/h (1 Bft) O-SO 111 3,2 C 16,5 C 3,2 km/h (1 Bft)
18.02.2019 12:00 16,3 C 40 % 1019,3 hPa 0,0 l/m 2,2 km/h (1 Bft) O-SO 119 2,7 C 16,3 C 6,4 km/h (2 Bft)
18.02.2019 11:55 16,2 C 42 % 1019,3 hPa 0,0 l/m 1,9 km/h (1 Bft) O 91 3,3 C 16,2 C 6,4 km/h (2 Bft)
18.02.2019 11:50 16,0 C 42 % 1019,3 hPa 0,0 l/m 2,1 km/h (1 Bft) O-SO 111 3,1 C 16,0 C 6,4 km/h (2 Bft)
18.02.2019 11:45 15,8 C 41 % 1019,4 hPa 0,0 l/m 1,7 km/h (1 Bft) SO 128 2,6 C 15,8 C 4,8 km/h (1 Bft)
18.02.2019 11:40 15,7 C 42 % 1019,5 hPa 0,0 l/m 1,9 km/h (1 Bft) O-SO 107 2,8 C 15,7 C 9,7 km/h (2 Bft)
18.02.2019 11:35 15,4 C 43 % 1019,4 hPa 0,0 l/m 1,5 km/h (1 Bft) O-SO 110 2,9 C 15,4 C 4,8 km/h (1 Bft)
18.02.2019 11:30 15,3 C 43 % 1019,4 hPa 0,0 l/m 2,9 km/h (1 Bft) O-SO 111 2,8 C 15,3 C 6,4 km/h (2 Bft)
18.02.2019 11:25 15,2 C 43 % 1019,5 hPa 0,0 l/m 2,5 km/h (1 Bft) SO 140 2,7 C 15,2 C 6,4 km/h (2 Bft)
18.02.2019 11:20 15,1 C 43 % 1019,5 hPa 0,0 l/m 1,2 km/h (1 Bft) O-SO 104 2,6 C 15,1 C 4,8 km/h (1 Bft)
18.02.2019 11:15 14,8 C 45 % 1019,5 hPa 0,0 l/m 0,6 km/h (0 Bft) W-NW 299 3,0 C 14,8 C 3,2 km/h (1 Bft)
18.02.2019 11:10 14,4 C 47 % 1019,5 hPa 0,0 l/m 0,3 km/h (0 Bft) NW 306 3,2 C 14,4 C 3,2 km/h (1 Bft)
18.02.2019 11:05 13,9 C 47 % 1019,5 hPa 0,0 l/m 1,1 km/h (1 Bft) NW 306 2,8 C 13,9 C 3,2 km/h (1 Bft)
18.02.2019 11:00 13,4 C 50 % 1019,5 hPa 0,0 l/m 0,2 km/h (0 Bft) N-NW 338 3,2 C 13,4 C 1,6 km/h (1 Bft)
18.02.2019 10:55 12,8 C 51 % 1019,6 hPa 0,0 l/m 0,5 km/h (0 Bft) N-NW 338 2,9 C 12,8 C 3,2 km/h (1 Bft)
18.02.2019 10:50 12,2 C 54 % 1019,6 hPa 0,0 l/m 0,6 km/h (0 Bft) N-NW 333 3,2 C 12,2 C 3,2 km/h (1 Bft)
18.02.2019 10:45 11,4 C 59 % 1019,6 hPa 0,0 l/m 0,3 km/h (0 Bft) N-NW 333 3,7 C 11,4 C 3,2 km/h (1 Bft)
18.02.2019 10:40 10,8 C 62 % 1019,7 hPa 0,0 l/m 0,3 km/h (0 Bft) NW 323 3,8 C 10,8 C 1,6 km/h (1 Bft)
18.02.2019 10:35 10,1 C 62 % 1019,7 hPa 0,0 l/m 0,1 km/h (0 Bft) NW 323 3,2 C 10,1 C 1,6 km/h (1 Bft)
18.02.2019 10:30 9,5 C 65 % 1019,8 hPa 0,0 l/m 0,6 km/h (0 Bft) NW 323 3,3 C 9,5 C 3,2 km/h (1 Bft)
18.02.2019 10:25 8,9 C 68 % 1019,7 hPa 0,0 l/m 0,6 km/h (0 Bft) NW 322 3,3 C 8,9 C 3,2 km/h (1 Bft)
18.02.2019 10:20 8,2 C 72 % 1019,8 hPa 0,0 l/m 0,0 km/h (0 Bft) NW 322 3,5 C 8,2 C 0,0 km/h (0 Bft)
18.02.2019 10:15 7,6 C 75 % 1019,8 hPa 0,0 l/m 0,0 km/h (0 Bft) NW 322 3,5 C 7,6 C 0,0 km/h (0 Bft)
18.02.2019 10:10 7,0 C 76 % 1019,9 hPa 0,0 l/m 0,0 km/h (0 Bft) NW 322 3,1 C 7,0 C 0,0 km/h (0 Bft)
18.02.2019 10:05 6,4 C 78 % 1019,9 hPa 0,0 l/m 0,0 km/h (0 Bft) NW 322 2,8 C 6,4 C 1,6 km/h (1 Bft)
18.02.2019 10:00 5,9 C 80 % 1019,9 hPa 0,0 l/m 1,3 km/h (1 Bft) NW 322 2,7 C 5,9 C 3,2 km/h (1 Bft)
18.02.2019 09:55 5,6 C 81 % 1020,0 hPa 0,0 l/m 1,1 km/h (1 Bft) NW 322 2,6 C 5,6 C 3,2 km/h (1 Bft)
18.02.2019 09:50 5,3 C 82 % 1020,0 hPa 0,0 l/m 2,6 km/h (1 Bft) NW 322 2,5 C 5,3 C 4,8 km/h (1 Bft)
18.02.2019 09:45 4,9 C 84 % 1020,0 hPa 0,0 l/m 2,1 km/h (1 Bft) NW 316 2,4 C 4,9 C 4,8 km/h (1 Bft)
18.02.2019 09:40 4,4 C 85 % 1020,1 hPa 0,0 l/m 2,1 km/h (1 Bft) N-NW 327 2,1 C 4,4 C 6,4 km/h (2 Bft)
18.02.2019 09:35 4,0 C 86 % 1020,2 hPa 0,0 l/m 2,2 km/h (1 Bft) W-NW 301 1,9 C 4,0 C 4,8 km/h (1 Bft)
18.02.2019 09:30 3,6 C 86 % 1020,2 hPa 0,0 l/m 0,7 km/h (0 Bft) W-NW 302 1,5 C 3,6 C 3,2 km/h (1 Bft)
18.02.2019 09:25 3,3 C 86 % 1020,2 hPa 0,0 l/m 1,4 km/h (1 Bft) W-NW 302 1,2 C 3,3 C 3,2 km/h (1 Bft)
18.02.2019 09:20 2,9 C 86 % 1020,1 hPa 0,0 l/m 0,0 km/h (0 Bft) W-SW 240 0,8 C 2,9 C 1,6 km/h (1 Bft)
18.02.2019 09:15 2,7 C 85 % 1020,1 hPa 0,0 l/m 0,0 km/h (0 Bft) W-SW 240 0,4 C 2,7 C 0,0 km/h (0 Bft)
18.02.2019 09:10 2,4 C 85 % 1020,1 hPa 0,0 l/m 0,2 km/h (0 Bft) W-SW 240 0,1 C 2,4 C 1,6 km/h (1 Bft)
18.02.2019 09:05 2,2 C 85 % 1020,2 hPa 0,0 l/m 0,4 km/h (0 Bft) W-SW 240 -0,1 C 2,2 C 1,6 km/h (1 Bft)
18.02.2019 09:00 1,9 C 85 % 1020,1 hPa 0,0 l/m 1,0 km/h (0 Bft) W-SW 240 -0,3 C 1,9 C 3,2 km/h (1 Bft)
18.02.2019 08:55 1,6 C 86 % 1020,3 hPa 0,0 l/m 0,9 km/h (0 Bft) S 180 -0,5 C 1,6 C 3,2 km/h (1 Bft)
18.02.2019 08:50 1,3 C 87 % 1020,2 hPa 0,0 l/m 0,7 km/h (0 Bft) S 180 -0,6 C 1,3 C 3,2 km/h (1 Bft)
18.02.2019 08:45 1,0 C 87 % 1020,2 hPa 0,0 l/m 0,0 km/h (0 Bft) S 173 -0,9 C 1,0 C 1,6 km/h (1 Bft)
18.02.2019 08:40 0,8 C 87 % 1020,3 hPa 0,0 l/m 0,2 km/h (0 Bft) S 173 -1,1 C 0,8 C 1,6 km/h (1 Bft)
18.02.2019 08:35 0,6 C 86 % 1020,2 hPa 0,0 l/m 0,0 km/h (0 Bft) S 173 -1,5 C 0,6 C 0,0 km/h (0 Bft)
18.02.2019 08:30 0,6 C 86 % 1020,2 hPa 0,0 l/m 0,0 km/h (0 Bft) S 173 -1,5 C 0,6 C 0,0 km/h (0 Bft)
18.02.2019 08:25 0,5 C 86 % 1020,3 hPa 0,0 l/m 0,0 km/h (0 Bft) S 173 -1,6 C 0,5 C 0,0 km/h (0 Bft)
18.02.2019 08:20 0,4 C 86 % 1020,3 hPa 0,0 l/m 0,0 km/h (0 Bft) S 173 -1,7 C 0,4 C 1,6 km/h (1 Bft)
18.02.2019 08:15 0,3 C 86 % 1020,3 hPa 0,0 l/m 0,4 km/h (0 Bft) S 173 -1,8 C 0,3 C 3,2 km/h (1 Bft)
18.02.2019 08:10 0,2 C 86 % 1020,3 hPa 0,0 l/m 0,2 km/h (0 Bft) S 173 -1,9 C 0,2 C 1,6 km/h (1 Bft)
18.02.2019 08:05 0,2 C 86 % 1020,3 hPa 0,0 l/m 0,4 km/h (0 Bft) S 173 -1,9 C 0,2 C 1,6 km/h (1 Bft)
18.02.2019 08:00 0,2 C 87 % 1020,4 hPa 0,0 l/m 0,0 km/h (0 Bft) S 173 -1,7 C 0,2 C 1,6 km/h (1 Bft)
18.02.2019 07:55 0,1 C 87 % 1020,3 hPa 0,0 l/m 0,5 km/h (0 Bft) S 173 -1,8 C 0,1 C 3,2 km/h (1 Bft)
18.02.2019 07:50 0,0 C 87 % 1020,4 hPa 0,0 l/m 0,3 km/h (0 Bft) S 173 -1,9 C 0,0 C 3,2 km/h (1 Bft)
18.02.2019 07:45 -0,1 C 87 % 1020,4 hPa 0,0 l/m 0,0 km/h (0 Bft) S 173 -2,0 C -0,1 C 0,0 km/h (0 Bft)
18.02.2019 07:40 -0,1 C 86 % 1020,4 hPa 0,0 l/m 0,3 km/h (0 Bft) S 173 -2,2 C -0,1 C 1,6 km/h (1 Bft)
18.02.2019 07:35 0,0 C 86 % 1020,5 hPa 0,0 l/m 0,0 km/h (0 Bft) S 173 -2,1 C 0,0 C 0,0 km/h (0 Bft)
18.02.2019 07:30 0,1 C 86 % 1020,5 hPa 0,0 l/m 0,1 km/h (0 Bft) S 173 -2,0 C 0,1 C 1,6 km/h (1 Bft)
18.02.2019 07:25 0,2 C 86 % 1020,5 hPa 0,0 l/m 0,4 km/h (0 Bft) S 173 -1,9 C 0,2 C 1,6 km/h (1 Bft)
18.02.2019 07:20 0,2 C 85 % 1020,5 hPa 0,0 l/m 0,2 km/h (0 Bft) S 173 -2,0 C 0,2 C 1,6 km/h (1 Bft)
18.02.2019 07:15 0,3 C 84 % 1020,5 hPa 0,0 l/m 0,0 km/h (0 Bft) S 173 -2,1 C 0,3 C 0,0 km/h (0 Bft)
18.02.2019 07:10 0,4 C 84 % 1020,5 hPa 0,0 l/m 0,0 km/h (0 Bft) S 173 -2,0 C 0,4 C 0,0 km/h (0 Bft)
18.02.2019 07:05 0,5 C 85 % 1020,4 hPa 0,0 l/m 0,0 km/h (0 Bft) S 173 -1,7 C 0,5 C 0,0 km/h (0 Bft)
18.02.2019 07:00 0,6 C 84 % 1020,6 hPa 0,0 l/m 0,0 km/h (0 Bft) S 173 -1,8 C 0,6 C 0,0 km/h (0 Bft)
_ Min-Zeit 07:40 14:15 20:25 - 07:00 - - 07:40 07:40 07:00
Minimum _ -0,1 C 27 % 1016,7 hPa - 0,0 km/h (0 Bft) - - -2,2 C -0,1 C 0,0 km/h (0 Bft)
_ Max-Zeit 14:00 07:45 07:00 07:00 16:20 - - 06:20 13:45 15:35
Maximum _ 17,6 C 87 % 1020,6 hPa 0,0 l/m 11,9 km/h
SW (2 Bft)
- - 4,4 C 17,5 C 25,7 km/h
SW (4 Bft)
Durchschnitt _ 9,4 C 60 % 1018,2 hPa #0,0 l/m 3,7 km/h (1 Bft) W-SW - 1,4 C 9,3 C 9,4 km/h (2 Bft)
www.klaudt.eu